createdAt,value
2017-09-17T00:01:54.398Z,9.20
2017-09-17T00:04:21.919Z,9.20
2017-09-17T00:06:49.459Z,9.20
2017-09-17T00:09:16.975Z,9.30
2017-09-17T00:11:44.511Z,9.30
2017-09-17T00:14:12.038Z,9.30
2017-09-17T00:16:40.338Z,9.30
2017-09-17T00:19:07.850Z,9.30
2017-09-17T00:21:35.384Z,9.40
2017-09-17T00:24:02.908Z,9.40
2017-09-17T00:26:30.424Z,9.40
2017-09-17T00:28:57.963Z,9.40
2017-09-17T00:31:25.483Z,9.40
2017-09-17T00:33:53.022Z,9.50
2017-09-17T00:36:21.303Z,9.40
2017-09-17T00:38:49.617Z,9.30
2017-09-17T00:41:17.136Z,9.30
2017-09-17T00:43:45.443Z,9.20
2017-09-17T00:46:12.962Z,9.20
2017-09-17T00:48:40.500Z,9.20
2017-09-17T00:51:08.028Z,9.20
2017-09-17T00:53:35.567Z,9.20
2017-09-17T00:56:03.087Z,9.20
2017-09-17T00:58:30.626Z,9.10
2017-09-17T01:00:58.143Z,9.20
2017-09-17T01:03:26.443Z,9.20
2017-09-17T01:05:53.970Z,9.20
2017-09-17T01:08:22.270Z,9.20
2017-09-17T01:10:49.792Z,9.20
2017-09-17T01:13:17.326Z,9.10
2017-09-17T01:15:44.852Z,9.00
2017-09-17T01:18:12.393Z,8.90
2017-09-17T01:20:39.923Z,8.90
2017-09-17T01:23:07.462Z,8.90
2017-09-17T01:25:34.988Z,9.00
2017-09-17T01:28:02.532Z,9.00
2017-09-17T01:30:30.058Z,9.00
2017-09-17T01:32:57.603Z,9.10
2017-09-17T01:35:25.132Z,9.10
2017-09-17T01:37:52.676Z,9.10
2017-09-17T01:40:20.191Z,9.10
2017-09-17T01:42:47.741Z,9.10
2017-09-17T01:45:15.260Z,9.10
2017-09-17T01:47:43.572Z,9.20
2017-09-17T01:50:11.097Z,9.10
2017-09-17T01:52:38.630Z,9.20
2017-09-17T01:55:06.918Z,9.10
2017-09-17T01:57:34.454Z,9.10
2017-09-17T02:00:02.745Z,9.10
2017-09-17T02:02:30.288Z,9.00
2017-09-17T02:04:58.574Z,9.10
2017-09-17T02:07:26.110Z,9.10
2017-09-17T02:09:54.391Z,9.10
2017-09-17T02:12:22.697Z,9.10
2017-09-17T02:14:50.223Z,9.10
2017-09-17T02:17:17.763Z,9.20
2017-09-17T02:19:45.287Z,9.20
2017-09-17T02:22:12.830Z,9.20
2017-09-17T02:24:40.349Z,9.10
2017-09-17T02:27:07.887Z,9.20
2017-09-17T02:29:36.183Z,9.20
2017-09-17T02:32:03.707Z,9.20
2017-09-17T02:34:31.247Z,9.20
2017-09-17T02:36:58.777Z,9.20
2017-09-17T02:39:26.320Z,9.10
2017-09-17T02:41:53.839Z,9.10
2017-09-17T02:44:22.145Z,9.00
2017-09-17T02:46:49.676Z,9.00
2017-09-17T02:49:17.980Z,9.10
2017-09-17T02:51:45.518Z,9.00
2017-09-17T02:54:13.824Z,9.00
2017-09-17T02:56:41.349Z,9.00
2017-09-17T02:59:09.656Z,8.90
2017-09-17T03:01:37.939Z,8.90
2017-09-17T03:04:06.239Z,8.90
2017-09-17T03:06:33.759Z,8.90
2017-09-17T03:09:01.311Z,8.90
2017-09-17T03:11:28.835Z,8.80
2017-09-17T03:13:56.375Z,8.80
2017-09-17T03:16:23.895Z,8.70
2017-09-17T03:18:51.433Z,8.70
2017-09-17T03:21:18.964Z,8.70
2017-09-17T03:23:46.499Z,8.60
2017-09-17T03:26:14.020Z,8.60
2017-09-17T03:28:41.567Z,8.70
2017-09-17T03:31:09.087Z,8.60
2017-09-17T03:33:36.627Z,8.60
2017-09-17T03:36:04.916Z,8.50
2017-09-17T03:38:32.460Z,8.50
2017-09-17T03:41:00.746Z,8.50
2017-09-17T03:43:28.278Z,8.40
2017-09-17T03:45:56.566Z,8.40
2017-09-17T03:48:24.106Z,8.40
2017-09-17T03:50:51.632Z,8.40
2017-09-17T03:53:19.176Z,8.30
2017-09-17T03:55:46.699Z,8.30
2017-09-17T03:58:14.235Z,8.30
2017-09-17T04:00:41.767Z,8.30
2017-09-17T04:03:09.319Z,8.30
2017-09-17T04:05:36.839Z,8.30
2017-09-17T04:08:04.371Z,8.20
2017-09-17T04:10:31.894Z,8.20
2017-09-17T04:12:59.430Z,8.20
2017-09-17T04:15:26.955Z,8.10
2017-09-17T04:17:54.500Z,8.10
2017-09-17T04:20:22.019Z,8.00
2017-09-17T04:22:49.566Z,8.00
2017-09-17T04:25:17.091Z,8.00
2017-09-17T04:27:44.636Z,8.00
2017-09-17T04:30:12.160Z,8.10
2017-09-17T04:32:39.702Z,8.00
2017-09-17T04:35:07.226Z,8.00
2017-09-17T04:37:34.751Z,8.00
2017-09-17T04:40:02.291Z,8.00
2017-09-17T04:42:29.810Z,8.00
2017-09-17T04:44:57.351Z,8.00
2017-09-17T04:47:24.871Z,8.00
2017-09-17T04:49:52.415Z,8.00
2017-09-17T04:52:19.939Z,8.10
2017-09-17T04:54:47.478Z,8.10
2017-09-17T04:57:15.002Z,8.10
2017-09-17T04:59:42.538Z,8.10
2017-09-17T05:02:10.827Z,8.10
2017-09-17T05:04:38.363Z,8.10
2017-09-17T05:07:05.886Z,8.10
2017-09-17T05:09:34.194Z,8.20
2017-09-17T05:12:01.720Z,8.10
2017-09-17T05:14:30.027Z,8.20
2017-09-17T05:16:57.543Z,8.20
2017-09-17T05:19:25.085Z,8.30
2017-09-17T05:21:52.606Z,8.30
2017-09-17T05:24:20.145Z,8.40
2017-09-17T05:26:47.676Z,8.40
2017-09-17T05:29:15.228Z,8.50
2017-09-17T05:31:42.745Z,8.60
2017-09-17T05:34:10.298Z,8.60
2017-09-17T05:36:37.813Z,8.60
2017-09-17T05:39:05.355Z,8.70
2017-09-17T05:41:32.874Z,8.70
2017-09-17T05:44:00.419Z,8.80
2017-09-17T05:46:27.943Z,8.80
2017-09-17T05:48:55.491Z,8.80
2017-09-17T05:51:23.015Z,8.80
2017-09-17T05:53:50.558Z,8.90
2017-09-17T05:56:18.080Z,9.00
2017-09-17T05:58:45.622Z,9.00
2017-09-17T06:01:13.910Z,9.20
2017-09-17T06:03:41.465Z,9.20
2017-09-17T06:06:09.000Z,9.20
2017-09-17T06:08:36.560Z,9.30
2017-09-17T06:11:04.088Z,9.40
2017-09-17T06:13:31.633Z,9.60
2017-09-17T06:15:59.929Z,10.00
2017-09-17T06:18:27.483Z,9.90
2017-09-17T06:20:55.015Z,10.10
2017-09-17T06:23:23.334Z,10.20
2017-09-17T06:25:50.860Z,10.20
2017-09-17T06:28:19.176Z,10.30
2017-09-17T06:30:46.696Z,10.30
2017-09-17T06:33:15.010Z,10.50
2017-09-17T06:35:42.539Z,10.40
2017-09-17T06:38:10.853Z,10.70
2017-09-17T06:40:38.402Z,10.70
2017-09-17T06:43:06.685Z,11.10
2017-09-17T06:45:34.226Z,11.00
2017-09-17T06:48:02.522Z,11.30
2017-09-17T06:50:30.071Z,11.30
2017-09-17T06:52:58.418Z,11.20
2017-09-17T06:55:25.981Z,11.20
2017-09-17T06:57:53.503Z,11.20
2017-09-17T07:00:21.050Z,11.10
2017-09-17T07:02:48.577Z,11.10
2017-09-17T07:05:16.893Z,11.30
2017-09-17T07:07:44.415Z,11.30
2017-09-17T07:10:11.964Z,11.40
2017-09-17T07:12:39.486Z,11.40
2017-09-17T07:15:07.027Z,11.40
2017-09-17T07:17:34.552Z,11.40
2017-09-17T07:20:02.094Z,11.50
2017-09-17T07:22:29.619Z,11.50
2017-09-17T07:24:57.159Z,11.70
2017-09-17T07:27:25.452Z,12.00
2017-09-17T07:29:53.763Z,12.20
2017-09-17T07:32:21.308Z,12.10
2017-09-17T07:34:48.826Z,12.30
2017-09-17T07:37:16.362Z,12.40
2017-09-17T07:39:43.889Z,12.50
2017-09-17T07:42:11.427Z,12.60
2017-09-17T07:44:39.710Z,12.80
2017-09-17T07:47:07.257Z,12.80
2017-09-17T07:49:35.553Z,12.80
2017-09-17T07:52:03.100Z,12.80
2017-09-17T07:54:30.617Z,12.80
2017-09-17T07:56:58.164Z,12.70
2017-09-17T07:59:25.680Z,12.70
2017-09-17T08:01:53.223Z,12.70
2017-09-17T08:04:21.507Z,12.70
2017-09-17T08:06:49.033Z,12.70
2017-09-17T08:09:16.579Z,12.70
2017-09-17T08:11:44.110Z,12.70
2017-09-17T08:14:11.708Z,12.80
2017-09-17T08:16:40.002Z,12.90
2017-09-17T08:19:08.312Z,13.00
2017-09-17T08:21:35.836Z,13.00
2017-09-17T08:24:04.142Z,13.40
2017-09-17T08:26:31.660Z,13.30
2017-09-17T08:28:59.205Z,13.60
2017-09-17T08:31:26.738Z,13.90
2017-09-17T08:33:54.279Z,14.10
2017-09-17T08:36:21.804Z,14.30
2017-09-17T08:38:49.355Z,14.40
2017-09-17T08:41:16.879Z,14.40
2017-09-17T08:43:44.406Z,14.30
2017-09-17T08:46:11.942Z,14.40
2017-09-17T08:48:39.471Z,14.60
2017-09-17T08:51:07.787Z,15.10
2017-09-17T08:53:35.310Z,15.10
2017-09-17T08:56:03.619Z,15.20
2017-09-17T08:58:31.138Z,15.20
2017-09-17T09:00:58.674Z,15.10
2017-09-17T09:03:26.959Z,15.00
2017-09-17T09:05:55.266Z,14.90
2017-09-17T09:08:22.790Z,14.90
2017-09-17T09:10:51.096Z,15.60
2017-09-17T09:13:18.619Z,15.50
2017-09-17T09:15:46.923Z,16.10
2017-09-17T09:18:14.451Z,16.00
2017-09-17T09:20:42.745Z,16.10
2017-09-17T09:23:11.055Z,16.10
2017-09-17T09:25:38.575Z,16.10
2017-09-17T09:28:06.880Z,16.10
2017-09-17T09:30:34.409Z,16.10
2017-09-17T09:33:01.963Z,16.30
2017-09-17T09:35:29.482Z,16.60
2017-09-17T09:37:57.166Z,17.20
2017-09-17T09:40:25.455Z,18.20
2017-09-17T09:42:53.004Z,18.20
2017-09-17T09:45:20.532Z,18.90
2017-09-17T09:47:48.071Z,19.00
2017-09-17T09:50:16.364Z,18.30
2017-09-17T09:52:43.884Z,18.20
2017-09-17T09:55:11.427Z,18.30
2017-09-17T09:57:38.951Z,18.40
2017-09-17T10:00:06.491Z,18.30
2017-09-17T10:02:34.789Z,19.20
2017-09-17T10:05:02.332Z,19.10
2017-09-17T10:07:30.623Z,20.30
2017-09-17T10:09:58.167Z,20.20
2017-09-17T10:12:26.459Z,21.30
2017-09-17T10:14:54.003Z,21.30
2017-09-17T10:17:21.522Z,21.40
2017-09-17T10:19:49.093Z,21.00
2017-09-17T10:22:16.606Z,20.30
2017-09-17T10:24:44.142Z,19.80
2017-09-17T10:27:11.663Z,19.30
2017-09-17T10:29:39.207Z,18.70
2017-09-17T10:32:06.732Z,18.20
2017-09-17T10:34:34.279Z,17.90
2017-09-17T10:37:01.814Z,18.20
2017-09-17T10:39:30.102Z,19.10
2017-09-17T10:41:59.007Z,19.50
2017-09-17T10:44:26.536Z,19.50
2017-09-17T10:46:54.080Z,19.70
2017-09-17T10:49:21.602Z,20.20
2017-09-17T10:51:49.142Z,20.50
2017-09-17T10:54:16.663Z,21.00
2017-09-17T10:56:44.205Z,21.20
2017-09-17T10:59:11.736Z,21.40
2017-09-17T11:01:39.284Z,21.00
2017-09-17T11:04:06.801Z,20.30
2017-09-17T11:06:34.362Z,19.40
2017-09-17T11:09:01.887Z,19.20
2017-09-17T11:11:30.176Z,19.30
2017-09-17T11:13:57.724Z,19.30
2017-09-17T11:16:25.247Z,19.20
2017-09-17T11:18:52.792Z,19.30
2017-09-17T11:21:20.311Z,20.10
2017-09-17T11:23:47.858Z,20.40
2017-09-17T11:26:16.146Z,20.80
2017-09-17T11:28:43.681Z,20.70
2017-09-17T11:31:11.207Z,20.80
2017-09-17T11:33:38.751Z,20.70
2017-09-17T11:36:06.273Z,20.60
2017-09-17T11:38:34.581Z,21.10
2017-09-17T11:41:02.111Z,21.10
2017-09-17T11:43:30.400Z,21.50
2017-09-17T11:45:57.948Z,21.50
2017-09-17T11:48:26.239Z,21.10
2017-09-17T11:50:53.786Z,21.10
2017-09-17T11:53:22.076Z,21.20
2017-09-17T11:55:49.623Z,21.20
2017-09-17T11:58:17.912Z,21.20
2017-09-17T12:00:46.224Z,20.80
2017-09-17T12:03:13.747Z,20.80
2017-09-17T12:05:42.064Z,21.80
2017-09-17T12:08:09.588Z,21.70
2017-09-17T12:10:37.138Z,21.40
2017-09-17T12:13:05.426Z,19.70
2017-09-17T12:15:33.735Z,19.30
2017-09-17T12:18:01.276Z,19.30
2017-09-17T12:20:28.799Z,18.90
2017-09-17T12:22:56.333Z,18.70
2017-09-17T12:25:23.859Z,18.70
2017-09-17T12:27:51.403Z,18.50
2017-09-17T12:30:18.927Z,18.80
2017-09-17T12:32:46.474Z,19.40
2017-09-17T12:35:13.994Z,19.40
2017-09-17T12:37:41.529Z,19.10
2017-09-17T12:40:09.059Z,18.70
2017-09-17T12:42:36.607Z,18.50
2017-09-17T12:45:04.131Z,18.50
2017-09-17T12:47:32.436Z,18.60
2017-09-17T12:49:59.954Z,18.60
2017-09-17T12:52:27.475Z,18.70
2017-09-17T12:54:55.012Z,18.50
2017-09-17T12:57:22.530Z,18.50
2017-09-17T12:59:50.074Z,18.10
2017-09-17T13:02:17.590Z,17.80
2017-09-17T13:04:45.132Z,17.80
2017-09-17T13:07:12.656Z,17.50
2017-09-17T13:09:40.204Z,17.60
2017-09-17T13:12:07.726Z,17.70
2017-09-17T13:14:36.033Z,17.60
2017-09-17T13:17:03.550Z,17.60
2017-09-17T13:19:31.858Z,17.60
2017-09-17T13:22:00.227Z,17.60
2017-09-17T13:24:27.746Z,17.70
2017-09-17T13:26:55.278Z,17.90
2017-09-17T13:29:22.799Z,17.90
2017-09-17T13:31:51.109Z,17.90
2017-09-17T13:34:18.626Z,17.90
2017-09-17T13:36:46.936Z,18.20
2017-09-17T13:39:14.457Z,18.20
2017-09-17T13:41:42.768Z,18.20
2017-09-17T13:44:11.068Z,18.20
2017-09-17T13:46:38.592Z,18.10
2017-09-17T13:49:06.135Z,18.10
2017-09-17T13:51:33.661Z,18.00
2017-09-17T13:54:01.252Z,18.10
2017-09-17T13:56:28.776Z,18.10
2017-09-17T13:58:56.318Z,18.00
2017-09-17T14:04:41.901Z,17.60
2017-09-17T14:10:18.484Z,17.50
2017-09-17T14:12:46.000Z,17.30
2017-09-17T14:15:13.544Z,17.30
2017-09-17T14:17:41.071Z,17.20
2017-09-17T14:20:09.387Z,17.00
2017-09-17T14:22:36.907Z,17.00
2017-09-17T14:25:04.451Z,16.90
2017-09-17T14:27:32.019Z,16.70
2017-09-17T14:29:59.563Z,16.50
2017-09-17T14:32:27.087Z,16.40
2017-09-17T14:34:54.643Z,16.20
2017-09-17T14:37:22.172Z,16.10
2017-09-17T14:39:49.688Z,16.20
2017-09-17T14:42:17.227Z,16.10
2017-09-17T14:44:44.755Z,16.00
2017-09-17T14:47:12.297Z,16.00
2017-09-17T14:49:39.824Z,15.90
2017-09-17T14:52:07.371Z,15.80
2017-09-17T14:54:34.891Z,15.80
2017-09-17T14:57:02.435Z,15.80
2017-09-17T14:59:29.960Z,15.80
2017-09-17T15:01:58.216Z,15.80
2017-09-17T15:04:26.512Z,16.10
2017-09-17T15:06:54.040Z,16.10
2017-09-17T15:09:21.582Z,16.50
2017-09-17T15:11:49.099Z,16.70
2017-09-17T15:14:16.640Z,16.80
2017-09-17T15:16:44.932Z,16.50
2017-09-17T15:19:12.480Z,16.50
2017-09-17T15:21:40.762Z,16.30
2017-09-17T15:24:09.074Z,16.50
2017-09-17T15:26:36.595Z,16.50
2017-09-17T15:29:04.895Z,16.60
2017-09-17T15:31:32.410Z,16.60
2017-09-17T15:34:00.724Z,16.90
2017-09-17T15:36:28.247Z,16.90
2017-09-17T15:38:55.794Z,16.90
2017-09-17T15:41:23.316Z,17.00
2017-09-17T15:43:51.602Z,17.10
2017-09-17T15:46:19.907Z,17.10
2017-09-17T15:48:47.424Z,17.10
2017-09-17T15:51:14.970Z,16.90
2017-09-17T15:53:42.492Z,16.70
2017-09-17T15:56:10.032Z,16.40
2017-09-17T15:58:37.551Z,16.20
2017-09-17T16:01:05.095Z,15.80
2017-09-17T16:03:32.621Z,15.50
2017-09-17T16:06:00.162Z,15.30
2017-09-17T16:08:27.692Z,15.10
2017-09-17T16:10:55.235Z,15.10
2017-09-17T16:13:22.761Z,15.10
2017-09-17T16:15:50.306Z,15.20
2017-09-17T16:18:17.831Z,15.30
2017-09-17T16:20:45.354Z,15.10
2017-09-17T16:23:12.904Z,15.00
2017-09-17T16:25:40.475Z,15.10
2017-09-17T16:28:08.012Z,15.10
2017-09-17T16:30:35.530Z,15.10
2017-09-17T16:33:03.071Z,15.10
2017-09-17T16:35:30.596Z,15.10
2017-09-17T16:37:58.134Z,15.00
2017-09-17T16:40:26.419Z,14.60
2017-09-17T16:42:53.970Z,14.60
2017-09-17T16:45:22.254Z,14.40
2017-09-17T16:47:49.773Z,14.40
2017-09-17T16:50:18.084Z,14.20
2017-09-17T16:52:45.607Z,14.20
2017-09-17T16:55:13.912Z,13.90
2017-09-17T16:57:41.428Z,13.90
2017-09-17T17:00:08.976Z,13.80
2017-09-17T17:02:36.500Z,13.60
2017-09-17T17:05:04.049Z,13.40
2017-09-17T17:07:31.579Z,13.30
2017-09-17T17:09:59.887Z,13.10
2017-09-17T17:12:27.411Z,13.10
2017-09-17T17:14:54.955Z,13.00
2017-09-17T17:17:22.480Z,12.90
2017-09-17T17:19:50.058Z,12.90
2017-09-17T17:22:17.579Z,12.80
2017-09-17T17:24:45.107Z,12.60
2017-09-17T17:27:12.647Z,12.50
2017-09-17T17:29:40.162Z,12.40
2017-09-17T17:32:07.705Z,12.30
2017-09-17T17:34:35.234Z,12.20
2017-09-17T17:37:02.776Z,12.20
2017-09-17T17:39:31.058Z,11.80
2017-09-17T17:41:59.054Z,11.80
2017-09-17T17:44:26.576Z,11.60
2017-09-17T17:46:54.175Z,11.50
2017-09-17T17:49:21.699Z,11.40
2017-09-17T17:51:50.014Z,11.40
2017-09-17T17:54:17.531Z,11.40
2017-09-17T17:56:45.819Z,11.40
2017-09-17T17:59:13.366Z,11.40
2017-09-17T18:01:41.659Z,11.20
2017-09-17T18:04:09.208Z,11.10
2017-09-17T18:06:37.500Z,11.00
2017-09-17T18:09:05.034Z,11.00
2017-09-17T18:11:33.316Z,10.90
2017-09-17T18:14:01.624Z,10.80
2017-09-17T18:16:29.138Z,10.80
2017-09-17T18:18:56.723Z,10.80
2017-09-17T18:21:24.999Z,10.80
2017-09-17T18:23:53.306Z,10.70
2017-09-17T18:26:20.826Z,10.70
2017-09-17T18:28:49.144Z,10.60
2017-09-17T18:31:16.663Z,10.60
2017-09-17T18:33:44.954Z,10.40
2017-09-17T18:36:12.495Z,10.40
2017-09-17T18:38:40.783Z,10.40
2017-09-17T18:41:09.088Z,10.30
2017-09-17T18:43:36.614Z,10.30
2017-09-17T18:46:04.927Z,10.20
2017-09-17T18:48:32.451Z,10.10
2017-09-17T18:51:06.366Z,9.90
2017-09-17T18:53:34.650Z,9.90
2017-09-17T18:56:02.201Z,9.90
2017-09-17T18:58:30.487Z,9.80
2017-09-17T19:00:58.022Z,9.80
2017-09-17T19:03:25.544Z,9.70
2017-09-17T19:05:53.095Z,9.70
2017-09-17T19:08:20.621Z,9.60
2017-09-17T19:10:48.152Z,9.60
2017-09-17T19:13:15.691Z,9.60
2017-09-17T19:15:43.206Z,9.60
2017-09-17T19:18:10.734Z,9.60
2017-09-17T19:20:38.247Z,9.60
2017-09-17T19:23:05.784Z,9.50
2017-09-17T19:25:33.369Z,9.40
2017-09-17T19:28:00.900Z,9.40
2017-09-17T19:30:29.188Z,9.40
2017-09-17T19:32:56.728Z,9.40
2017-09-17T19:35:25.015Z,9.30
2017-09-17T19:37:52.539Z,9.30
2017-09-17T19:40:20.079Z,9.20
2017-09-17T19:42:47.603Z,9.10
2017-09-17T19:45:15.139Z,9.10
2017-09-17T19:47:43.423Z,9.10
2017-09-17T19:50:11.736Z,9.10
2017-09-17T19:52:39.255Z,9.10
2017-09-17T19:55:07.572Z,9.20
2017-09-17T19:57:35.088Z,9.20
2017-09-17T20:00:03.400Z,9.10
2017-09-17T20:02:30.919Z,9.10
2017-09-17T20:04:58.463Z,9.10
2017-09-17T20:07:26.000Z,9.10
2017-09-17T20:09:53.538Z,9.00
2017-09-17T20:12:21.059Z,9.00
2017-09-17T20:14:48.600Z,9.00
2017-09-17T20:17:16.135Z,8.90
2017-09-17T20:19:43.680Z,8.90
2017-09-17T20:22:11.962Z,8.90
2017-09-17T20:24:40.260Z,8.90
2017-09-17T20:27:07.778Z,8.90
2017-09-17T20:29:35.314Z,8.90
2017-09-17T20:32:02.835Z,8.90
2017-09-17T20:34:30.416Z,8.90
2017-09-17T20:36:57.947Z,8.80
2017-09-17T20:39:25.488Z,8.80
2017-09-17T20:41:53.780Z,8.80
2017-09-17T20:44:22.086Z,8.80
2017-09-17T20:46:49.602Z,8.80
2017-09-17T20:49:17.144Z,8.80
2017-09-17T20:51:44.671Z,8.70
2017-09-17T20:54:12.211Z,8.70
2017-09-17T20:56:40.506Z,8.60
2017-09-17T20:59:08.051Z,8.60
2017-09-17T21:01:36.335Z,8.60
2017-09-17T21:04:04.639Z,8.60
2017-09-17T21:06:32.159Z,8.60
2017-09-17T21:09:00.471Z,8.50
2017-09-17T21:11:27.987Z,8.50
2017-09-17T21:13:55.532Z,8.50
2017-09-17T21:16:23.071Z,8.40
2017-09-17T21:18:50.604Z,8.40
2017-09-17T21:21:18.147Z,8.40
2017-09-17T21:23:46.435Z,8.30
2017-09-17T21:26:13.981Z,8.30
2017-09-17T21:28:42.268Z,8.30
2017-09-17T21:31:09.817Z,8.30
2017-09-17T21:33:38.098Z,8.20
2017-09-17T21:36:06.407Z,8.20
2017-09-17T21:38:33.930Z,8.20
2017-09-17T21:41:02.239Z,8.10
2017-09-17T21:43:29.764Z,8.10
2017-09-17T21:45:58.085Z,8.00
2017-09-17T21:48:25.604Z,8.00
2017-09-17T21:50:53.917Z,7.90
2017-09-17T21:53:21.446Z,7.90
2017-09-17T21:55:49.755Z,7.80
2017-09-17T21:58:17.280Z,7.80
2017-09-17T22:00:45.587Z,7.90
2017-09-17T22:03:13.112Z,7.80
2017-09-17T22:05:41.432Z,7.90
2017-09-17T22:08:08.956Z,7.90
2017-09-17T22:10:37.256Z,7.80
2017-09-17T22:13:04.771Z,7.80
2017-09-17T22:15:32.307Z,7.80
2017-09-17T22:17:59.824Z,7.80
2017-09-17T22:20:27.368Z,7.70
2017-09-17T22:22:55.664Z,7.70
2017-09-17T22:25:23.204Z,7.60
2017-09-17T22:27:51.487Z,7.70
2017-09-17T22:30:19.796Z,7.70
2017-09-17T22:32:47.314Z,7.70
2017-09-17T22:35:15.623Z,7.70
2017-09-17T22:37:43.146Z,7.70
2017-09-17T22:40:11.450Z,7.70
2017-09-17T22:42:38.975Z,7.60
2017-09-17T22:45:06.515Z,7.70
2017-09-17T22:47:34.043Z,7.70
2017-09-17T22:50:01.592Z,7.70
2017-09-17T22:52:29.123Z,7.80
2017-09-17T22:54:57.435Z,7.70
2017-09-17T22:57:24.951Z,7.70
2017-09-17T22:59:52.486Z,7.70
2017-09-17T23:02:20.015Z,7.70
2017-09-17T23:04:47.564Z,7.70
2017-09-17T23:07:15.855Z,7.70
2017-09-17T23:09:43.407Z,7.70
2017-09-17T23:12:11.691Z,7.70
2017-09-17T23:14:39.990Z,7.60
2017-09-17T23:17:07.511Z,7.60
2017-09-17T23:19:35.827Z,7.50
2017-09-17T23:22:03.356Z,7.50
2017-09-17T23:24:30.915Z,7.40
2017-09-17T23:26:58.435Z,7.30
2017-09-17T23:29:25.966Z,7.30
2017-09-17T23:31:54.279Z,7.30
2017-09-17T23:34:21.799Z,7.30
2017-09-17T23:36:49.345Z,7.30
2017-09-17T23:39:16.874Z,7.30
2017-09-17T23:41:44.416Z,7.30
2017-09-17T23:44:11.934Z,7.20
2017-09-17T23:46:39.475Z,7.20
2017-09-17T23:49:06.997Z,7.20
2017-09-17T23:51:34.547Z,7.20
2017-09-17T23:54:02.075Z,7.00
2017-09-17T23:56:29.615Z,7.00
2017-09-17T23:58:57.142Z,7.00
